createdAt,value
2023-04-05T00:02:00.473Z,6.80
2023-04-05T00:04:28.827Z,5.68
2023-04-05T00:06:57.551Z,6.35
2023-04-05T00:09:24.707Z,6.13
2023-04-05T00:11:51.885Z,6.00
2023-04-05T00:14:19.065Z,5.95
2023-04-05T00:16:46.262Z,5.43
2023-04-05T00:19:13.673Z,6.00
2023-04-05T00:21:40.894Z,5.95
2023-04-05T00:24:09.537Z,5.65
2023-04-05T00:26:36.724Z,5.32
2023-04-05T00:29:03.864Z,5.30
2023-04-05T00:31:31.163Z,4.00
2023-04-05T00:33:58.406Z,4.70
2023-04-05T00:36:26.338Z,4.57
2023-04-05T00:38:53.487Z,4.13
2023-04-05T00:41:21.092Z,4.82
2023-04-05T00:43:48.282Z,4.43
2023-04-05T00:46:16.799Z,4.40
2023-04-05T00:48:44.105Z,4.25
2023-04-05T00:51:11.713Z,4.00
2023-04-05T00:53:39.203Z,4.40
2023-04-05T00:56:06.674Z,3.97
2023-04-05T00:58:33.906Z,3.78
2023-04-05T01:01:06.591Z,4.00
2023-04-05T01:03:35.445Z,4.03
2023-04-05T01:06:09.872Z,4.03
2023-04-05T01:08:37.088Z,3.95
2023-04-05T01:11:05.085Z,3.35
2023-04-05T01:13:32.810Z,4.15
2023-04-05T01:16:00.403Z,3.60
2023-04-05T01:18:31.124Z,3.67
2023-04-05T01:21:02.725Z,3.85
2023-04-05T01:23:49.034Z,3.42
2023-04-05T01:26:34.975Z,3.63
2023-04-05T01:29:22.048Z,3.40
2023-04-05T01:31:57.290Z,3.33
2023-04-05T01:34:33.702Z,3.78
2023-04-05T01:37:03.704Z,3.35
2023-04-05T01:39:31.801Z,3.50
2023-04-05T01:42:00.196Z,3.45
2023-04-05T01:44:27.575Z,3.63
2023-04-05T01:46:54.826Z,3.25
2023-04-05T01:49:22.082Z,3.30
2023-04-05T01:51:49.226Z,3.17
2023-04-05T01:54:16.655Z,3.33
2023-04-05T01:56:43.824Z,3.30
2023-04-05T01:59:11.013Z,3.17
2023-04-05T02:01:38.171Z,2.67
2023-04-05T02:04:05.506Z,2.90
2023-04-05T02:06:32.860Z,3.03
2023-04-05T02:09:00.019Z,2.90
2023-04-05T02:11:27.194Z,3.10
2023-04-05T02:13:54.364Z,3.05
2023-04-05T02:16:21.553Z,3.42
2023-04-05T02:18:51.044Z,2.47
2023-04-05T02:21:18.404Z,3.22
2023-04-05T02:23:45.764Z,3.28
2023-04-05T02:26:12.875Z,3.42
2023-04-05T02:28:40.050Z,3.80
2023-04-05T02:31:11.311Z,3.90
2023-04-05T02:36:09.566Z,3.70
2023-04-05T02:41:03.879Z,3.25
2023-04-05T02:43:31.234Z,3.00
2023-04-05T02:45:58.377Z,2.70
2023-04-05T02:48:25.704Z,2.83
2023-04-05T02:50:52.895Z,3.13
2023-04-05T02:53:20.283Z,3.28
2023-04-05T02:55:57.290Z,3.17
2023-04-05T02:58:24.792Z,3.08
2023-04-05T03:00:54.219Z,2.63
2023-04-05T03:03:22.387Z,2.80
2023-04-05T03:05:49.906Z,3.30
2023-04-05T03:08:19.927Z,3.28
2023-04-05T03:10:47.573Z,3.80
2023-04-05T03:13:15.372Z,3.42
2023-04-05T03:15:42.679Z,3.63
2023-04-05T03:18:10.419Z,3.70
2023-04-05T03:20:41.529Z,2.80
2023-04-05T03:23:09.013Z,2.97
2023-04-05T03:25:40.653Z,2.92
2023-04-05T03:28:08.694Z,3.20
2023-04-05T03:30:36.336Z,2.72
2023-04-05T03:33:04.021Z,2.65
2023-04-05T03:35:31.521Z,2.83
2023-04-05T03:37:58.649Z,3.03
2023-04-05T03:40:26.082Z,3.55
2023-04-05T03:42:53.269Z,2.72
2023-04-05T03:45:24.042Z,2.70
2023-04-05T03:47:52.200Z,2.38
2023-04-05T03:50:19.331Z,2.80
2023-04-05T03:52:46.504Z,2.70
2023-04-05T03:55:13.723Z,2.20
2023-04-05T03:57:41.677Z,2.65
2023-04-05T04:00:14.572Z,2.78
2023-04-05T04:02:45.479Z,2.50
2023-04-05T04:05:13.449Z,3.00
2023-04-05T04:07:41.732Z,2.30
2023-04-05T04:10:09.540Z,2.50
2023-04-05T04:12:36.668Z,1.75
2023-04-05T04:15:04.109Z,2.13
2023-04-05T04:17:32.999Z,2.55
2023-04-05T04:20:00.150Z,1.95
2023-04-05T04:22:33.456Z,2.40
2023-04-05T04:25:04.794Z,2.40
2023-04-05T04:30:04.201Z,2.15
2023-04-05T04:32:50.740Z,2.30
2023-04-05T04:35:20.762Z,2.10
2023-04-05T04:37:53.116Z,1.98
2023-04-05T04:40:21.325Z,2.17
2023-04-05T04:42:48.492Z,2.17
2023-04-05T04:45:16.928Z,1.92
2023-04-05T04:47:48.042Z,2.00
2023-04-05T04:50:16.195Z,1.80
2023-04-05T04:52:43.386Z,1.90
2023-04-05T04:55:13.798Z,1.98
2023-04-05T04:57:42.834Z,1.58
2023-04-05T05:00:13.656Z,1.83
2023-04-05T05:02:42.308Z,2.55
2023-04-05T05:05:09.669Z,1.50
2023-04-05T05:07:37.011Z,1.83
2023-04-05T05:10:04.713Z,3.60
2023-04-05T05:12:32.879Z,1.77
2023-04-05T05:15:00.116Z,1.50
2023-04-05T05:17:27.336Z,1.45
2023-04-05T05:19:56.270Z,1.30
2023-04-05T05:22:23.584Z,1.73
2023-04-05T05:24:50.774Z,1.50
2023-04-05T05:27:17.955Z,1.75
2023-04-05T05:29:45.187Z,1.85
2023-04-05T05:32:17.131Z,1.42
2023-04-05T05:34:45.192Z,1.50
2023-04-05T05:37:12.959Z,1.45
2023-04-05T05:39:40.430Z,1.45
2023-04-05T05:42:07.535Z,1.98
2023-04-05T05:44:35.902Z,1.95
2023-04-05T05:47:03.680Z,1.92
2023-04-05T05:49:31.321Z,2.00
2023-04-05T05:51:58.549Z,2.05
2023-04-05T05:54:26.533Z,1.80
2023-04-05T05:56:53.920Z,1.80
2023-04-05T05:59:21.098Z,1.98
2023-04-05T06:01:48.816Z,1.50
2023-04-05T06:04:16.547Z,1.50
2023-04-05T06:06:46.675Z,3.40
2023-04-05T06:09:14.123Z,1.92
2023-04-05T06:11:53.134Z,1.77
2023-04-05T06:16:49.812Z,1.90
2023-04-05T06:19:17.060Z,2.08
2023-04-05T06:21:44.222Z,1.92
2023-04-05T06:24:11.544Z,1.90
2023-04-05T06:26:38.647Z,2.30
2023-04-05T06:29:06.185Z,2.22
2023-04-05T06:31:34.707Z,3.35
2023-04-05T06:34:01.929Z,2.38
2023-04-05T06:36:31.724Z,2.90
2023-04-05T06:38:59.523Z,2.78
2023-04-05T06:41:27.701Z,3.20
2023-04-05T06:43:55.651Z,3.30
2023-04-05T06:46:23.141Z,2.28
2023-04-05T06:48:50.753Z,2.63
2023-04-05T06:51:18.087Z,2.95
2023-04-05T06:53:45.394Z,2.78
2023-04-05T06:56:12.633Z,2.78
2023-04-05T06:58:40.096Z,3.38
2023-04-05T07:01:07.573Z,2.70
2023-04-05T07:03:34.824Z,3.00
2023-04-05T07:06:02.846Z,2.50
2023-04-05T07:08:32.006Z,3.03
2023-04-05T07:10:59.431Z,3.15
2023-04-05T07:13:26.724Z,2.45
2023-04-05T07:15:59.953Z,2.40
2023-04-05T07:18:27.120Z,2.97
2023-04-05T07:21:00.113Z,2.40
2023-04-05T07:23:28.295Z,2.92
2023-04-05T07:25:55.648Z,2.78
2023-04-05T07:28:22.926Z,2.90
2023-04-05T07:30:50.357Z,2.75
2023-04-05T07:33:17.546Z,2.47
2023-04-05T07:35:44.846Z,2.75
2023-04-05T07:38:11.999Z,2.80
2023-04-05T07:40:39.238Z,3.00
2023-04-05T07:43:06.602Z,2.70
2023-04-05T07:45:33.748Z,2.85
2023-04-05T07:48:00.943Z,2.55
2023-04-05T07:50:28.337Z,2.70
2023-04-05T07:52:55.456Z,2.70
2023-04-05T07:55:22.564Z,2.70
2023-04-05T07:57:49.805Z,2.85
2023-04-05T08:00:17.423Z,2.65
2023-04-05T08:02:44.681Z,2.50
2023-04-05T08:05:12.080Z,2.47
2023-04-05T08:07:39.447Z,2.72
2023-04-05T08:10:06.880Z,2.65
2023-04-05T08:12:35.695Z,2.88
2023-04-05T08:15:04.189Z,2.90
2023-04-05T08:17:31.386Z,4.47
2023-04-05T08:19:58.547Z,2.78
2023-04-05T08:22:29.066Z,2.90
2023-04-05T08:24:56.272Z,2.70
2023-04-05T08:27:23.682Z,2.83
2023-04-05T08:29:50.812Z,3.03
2023-04-05T08:32:18.002Z,3.20
2023-04-05T08:34:45.381Z,3.15
2023-04-05T08:37:12.504Z,3.00
2023-04-05T08:39:39.668Z,2.47
2023-04-05T08:42:06.846Z,2.85
2023-04-05T08:44:37.302Z,2.17
2023-04-05T08:47:04.518Z,2.17
2023-04-05T08:49:31.770Z,2.33
2023-04-05T08:52:01.717Z,2.20
2023-04-05T08:54:28.859Z,2.35
2023-04-05T08:56:58.113Z,2.47
2023-04-05T08:59:25.535Z,2.10
2023-04-05T09:01:53.255Z,2.15
2023-04-05T09:04:24.411Z,2.05
2023-04-05T09:09:19.400Z,2.10
2023-04-05T09:11:46.698Z,2.70
2023-04-05T09:14:13.932Z,2.10
2023-04-05T09:16:42.144Z,2.15
2023-04-05T09:19:09.848Z,2.03
2023-04-05T09:21:55.873Z,2.42
2023-04-05T09:24:42.616Z,2.60
2023-04-05T09:27:19.624Z,3.58
2023-04-05T09:29:47.530Z,2.97
2023-04-05T09:32:15.411Z,3.03
2023-04-05T09:34:43.165Z,3.67
2023-04-05T09:37:20.292Z,4.40
2023-04-05T09:39:49.509Z,3.60
2023-04-05T09:42:17.412Z,3.38
2023-04-05T09:44:58.357Z,3.70
2023-04-05T09:47:27.547Z,4.03
2023-04-05T09:49:54.824Z,3.63
2023-04-05T09:52:26.773Z,3.28
2023-04-05T09:54:56.664Z,4.22
2023-04-05T09:57:27.422Z,4.57
2023-04-05T09:59:54.990Z,3.58
2023-04-05T10:02:25.635Z,3.72
2023-04-05T10:04:53.161Z,3.08
2023-04-05T10:07:20.561Z,4.13
2023-04-05T10:09:48.722Z,3.25
2023-04-05T10:12:36.162Z,3.35
2023-04-05T10:15:03.451Z,3.45
2023-04-05T10:17:45.820Z,3.85
2023-04-05T10:20:20.333Z,3.65
2023-04-05T10:22:58.179Z,3.83
2023-04-05T10:25:32.866Z,3.50
2023-04-05T10:28:07.095Z,4.20
2023-04-05T10:30:39.133Z,4.40
2023-04-05T10:33:09.265Z,3.60
2023-04-05T10:35:36.501Z,3.53
2023-04-05T10:38:22.262Z,4.60
2023-04-05T10:40:50.630Z,4.30
2023-04-05T10:43:22.721Z,4.07
2023-04-05T10:45:52.983Z,4.38
2023-04-05T10:48:35.892Z,4.47
2023-04-05T10:51:04.006Z,4.80
2023-04-05T10:53:32.963Z,4.60
2023-04-05T10:56:02.112Z,4.13
2023-04-05T10:58:30.209Z,4.07
2023-04-05T11:00:57.961Z,4.63
2023-04-05T11:03:43.421Z,4.40
2023-04-05T11:06:22.555Z,4.63
2023-04-05T11:08:51.206Z,5.38
2023-04-05T11:11:19.178Z,4.90
2023-04-05T11:13:56.609Z,5.30
2023-04-05T11:16:24.802Z,4.90
2023-04-05T11:18:53.013Z,5.00
2023-04-05T11:21:24.441Z,5.30
2023-04-05T11:24:08.184Z,5.20
2023-04-05T11:26:57.533Z,5.47
2023-04-05T11:29:45.239Z,5.95
2023-04-05T11:32:13.088Z,5.10
2023-04-05T11:34:42.649Z,5.95
2023-04-05T11:37:09.895Z,6.13
2023-04-05T11:39:39.159Z,5.82
2023-04-05T11:42:07.267Z,6.00
2023-04-05T11:44:41.529Z,6.13
2023-04-05T11:47:09.392Z,6.05
2023-04-05T11:49:36.518Z,5.63
2023-04-05T11:52:13.912Z,6.68
2023-04-05T11:54:46.332Z,6.50
2023-04-05T11:57:15.159Z,5.60
2023-04-05T11:59:42.885Z,6.70
2023-04-05T12:02:10.215Z,6.47
2023-04-05T12:04:38.155Z,6.15
2023-04-05T12:07:11.265Z,6.10
2023-04-05T12:09:56.941Z,6.28
2023-04-05T12:12:24.492Z,6.70
2023-04-05T12:14:51.705Z,6.60
2023-04-05T12:17:18.862Z,6.95
2023-04-05T12:19:46.284Z,7.18
2023-04-05T12:22:13.763Z,7.20
2023-04-05T12:24:41.015Z,6.85
2023-04-05T12:27:08.171Z,7.43
2023-04-05T12:29:35.318Z,7.93
2023-04-05T12:32:04.610Z,6.68
2023-04-05T12:34:31.990Z,6.72
2023-04-05T12:37:03.107Z,7.40
2023-04-05T12:39:32.940Z,7.07
2023-04-05T12:42:01.141Z,6.57
2023-04-05T12:44:31.777Z,6.68
2023-04-05T12:47:03.110Z,7.20
2023-04-05T12:52:01.898Z,5.28
2023-04-05T12:54:29.202Z,7.03
2023-04-05T12:56:56.409Z,6.63
2023-04-05T12:59:24.223Z,6.68
2023-04-05T13:01:51.639Z,7.05
2023-04-05T13:04:18.920Z,7.65
2023-04-05T13:06:47.737Z,7.40
2023-04-05T13:09:15.320Z,7.53
2023-04-05T13:11:42.519Z,7.22
2023-04-05T13:14:09.956Z,7.10
2023-04-05T13:16:37.283Z,7.70
2023-04-05T13:19:04.551Z,7.03
2023-04-05T13:21:32.600Z,6.80
2023-04-05T13:23:59.762Z,7.82
2023-04-05T13:26:27.598Z,8.27
2023-04-05T13:28:54.803Z,8.23
2023-04-05T13:31:22.208Z,7.40
2023-04-05T13:33:49.404Z,8.40
2023-04-05T13:36:16.728Z,7.80
2023-04-05T13:38:43.982Z,8.13
2023-04-05T13:41:11.117Z,7.40
2023-04-05T13:43:38.240Z,6.32
2023-04-05T13:46:05.856Z,7.82
2023-04-05T13:48:33.009Z,7.97
2023-04-05T13:51:00.256Z,8.45
2023-04-05T13:53:28.601Z,8.57
2023-04-05T13:55:56.119Z,8.05
2023-04-05T13:58:23.283Z,7.80
2023-04-05T14:00:50.785Z,8.68
2023-04-05T14:03:18.048Z,8.68
2023-04-05T14:05:47.488Z,9.30
2023-04-05T14:08:16.499Z,9.27
2023-04-05T14:10:43.845Z,8.60
2023-04-05T14:13:12.898Z,9.35
2023-04-05T14:15:40.305Z,8.45
2023-04-05T14:18:07.705Z,9.55
2023-04-05T14:20:34.891Z,8.55
2023-04-05T14:23:02.438Z,8.05
2023-04-05T14:25:29.612Z,9.15
2023-04-05T14:27:56.781Z,9.10
2023-04-05T14:30:23.989Z,9.48
2023-04-05T14:32:51.288Z,10.13
2023-04-05T14:35:18.570Z,9.82
2023-04-05T14:37:45.772Z,9.00
2023-04-05T14:40:12.916Z,9.90
2023-04-05T14:42:48.578Z,11.10
2023-04-05T14:45:17.433Z,11.02
2023-04-05T14:47:44.572Z,10.25
2023-04-05T14:50:11.864Z,10.32
2023-04-05T14:52:40.158Z,10.88
2023-04-05T14:55:07.766Z,11.18
2023-04-05T14:57:34.880Z,11.20
2023-04-05T15:00:02.222Z,11.73
2023-04-05T15:02:29.428Z,11.68
2023-04-05T15:05:00.352Z,12.00
2023-04-05T15:07:30.687Z,11.23
2023-04-05T15:09:57.882Z,12.17
2023-04-05T15:12:25.527Z,12.43
2023-04-05T15:14:54.345Z,12.77
2023-04-05T15:17:22.076Z,11.32
2023-04-05T15:19:49.242Z,12.50
2023-04-05T15:22:17.679Z,13.40
2023-04-05T15:24:44.815Z,12.10
2023-04-05T15:27:12.020Z,13.15
2023-04-05T15:29:39.262Z,13.68
2023-04-05T15:32:06.568Z,12.45
2023-04-05T15:34:33.784Z,14.73
2023-04-05T15:37:00.995Z,16.00
2023-04-05T15:39:28.185Z,13.55
2023-04-05T15:41:59.688Z,14.02
2023-04-05T15:44:26.957Z,15.80
2023-04-05T15:46:54.169Z,16.13
2023-04-05T15:49:21.321Z,21.85
2023-04-05T15:51:48.609Z,16.17
2023-04-05T15:54:18.764Z,16.98
2023-04-05T15:56:46.143Z,16.07
2023-04-05T15:59:14.474Z,15.98
2023-04-05T16:01:41.755Z,16.88
2023-04-05T16:04:09.269Z,16.50
2023-04-05T16:06:36.605Z,15.38
2023-04-05T16:09:04.272Z,16.98
2023-04-05T16:11:31.666Z,17.58
2023-04-05T16:13:58.986Z,16.65
2023-04-05T16:16:38.584Z,15.38
2023-04-05T16:19:13.839Z,17.83
2023-04-05T16:21:41.065Z,16.77
2023-04-05T16:24:08.414Z,16.73
2023-04-05T16:26:35.769Z,17.95
2023-04-05T16:29:03.167Z,18.48
2023-04-05T16:31:30.689Z,18.30
2023-04-05T16:33:58.395Z,17.77
2023-04-05T16:36:25.887Z,15.23
2023-04-05T16:38:53.034Z,18.63
2023-04-05T16:41:20.537Z,18.48
2023-04-05T16:43:47.662Z,18.92
2023-04-05T16:46:14.945Z,17.92
2023-04-05T16:48:42.233Z,19.02
2023-04-05T16:51:09.416Z,16.45
2023-04-05T16:53:36.605Z,21.95
2023-04-05T16:56:03.887Z,17.10
2023-04-05T16:58:31.278Z,18.00
2023-04-05T17:01:00.231Z,18.17
2023-04-05T17:03:27.938Z,19.02
2023-04-05T17:05:55.658Z,18.33
2023-04-05T17:08:22.788Z,18.20
2023-04-05T17:10:49.957Z,19.38
2023-04-05T17:13:18.093Z,19.48
2023-04-05T17:15:45.537Z,18.77
2023-04-05T17:18:12.776Z,19.33
2023-04-05T17:20:40.016Z,18.83
2023-04-05T17:23:07.208Z,17.17
2023-04-05T17:25:34.458Z,20.13
2023-04-05T17:28:03.161Z,21.30
2023-04-05T17:30:31.334Z,20.38
2023-04-05T17:32:58.557Z,19.42
2023-04-05T17:35:25.884Z,18.17
2023-04-05T17:37:53.118Z,21.30
2023-04-05T17:40:20.429Z,18.77
2023-04-05T17:42:47.779Z,18.02
2023-04-05T17:45:14.956Z,19.85
2023-04-05T17:47:42.190Z,18.92
2023-04-05T17:50:09.576Z,19.70
2023-04-05T17:52:36.697Z,18.73
2023-04-05T17:55:04.027Z,20.50
2023-04-05T17:57:31.207Z,19.83
2023-04-05T17:59:59.301Z,20.42
2023-04-05T18:02:28.020Z,22.17
2023-04-05T18:04:55.380Z,21.00
2023-04-05T18:07:22.510Z,19.65
2023-04-05T18:09:49.816Z,22.77
2023-04-05T18:12:17.175Z,21.25
2023-04-05T18:14:44.336Z,21.60
2023-04-05T18:17:11.556Z,23.00
2023-04-05T18:19:38.685Z,20.75
2023-04-05T18:22:05.954Z,26.23
2023-04-05T18:24:33.148Z,24.35
2023-04-05T18:27:00.324Z,23.80
2023-04-05T18:29:30.450Z,23.17
2023-04-05T18:31:57.859Z,22.65
2023-04-05T18:34:25.176Z,23.92
2023-04-05T18:36:52.361Z,23.65
2023-04-05T18:39:20.276Z,23.63
2023-04-05T18:41:47.614Z,23.60
2023-04-05T18:44:14.928Z,22.70
2023-04-05T18:46:42.208Z,22.50
2023-04-05T18:49:09.573Z,24.25
2023-04-05T18:51:37.055Z,25.30
2023-04-05T18:54:04.445Z,23.08
2023-04-05T18:56:31.630Z,25.15
2023-04-05T18:58:58.915Z,24.58
2023-04-05T19:01:26.507Z,24.58
2023-04-05T19:03:53.748Z,24.33
2023-04-05T19:06:21.119Z,24.95
2023-04-05T19:08:48.354Z,25.17
2023-04-05T19:11:15.759Z,21.45
2023-04-05T19:13:42.906Z,25.40
2023-04-05T19:16:10.167Z,25.10
2023-04-05T19:18:37.383Z,24.52
2023-04-05T19:21:04.685Z,25.20
2023-04-05T19:23:32.675Z,26.48
2023-04-05T19:25:59.783Z,27.00
2023-04-05T19:28:27.386Z,24.90
2023-04-05T19:30:54.884Z,25.15
2023-04-05T19:33:22.130Z,26.38
2023-04-05T19:35:49.420Z,26.17
2023-04-05T19:38:16.736Z,24.63
2023-04-05T19:40:43.972Z,24.75
2023-04-05T19:43:11.914Z,26.13
2023-04-05T19:45:39.131Z,24.58
2023-04-05T19:48:26.653Z,25.02
2023-04-05T19:50:56.400Z,22.67
2023-04-05T19:53:38.828Z,23.08
2023-04-05T19:56:09.307Z,24.65
2023-04-05T19:58:36.417Z,21.50
2023-04-05T20:01:03.739Z,22.95
2023-04-05T20:03:34.882Z,22.70
2023-04-05T20:06:05.261Z,22.58
2023-04-05T20:08:34.146Z,22.27
2023-04-05T20:11:01.331Z,22.88
2023-04-05T20:13:28.533Z,23.50
2023-04-05T20:15:55.908Z,23.15
2023-04-05T20:18:27.189Z,22.90
2023-04-05T20:23:22.480Z,19.88
2023-04-05T20:25:50.940Z,20.33
2023-04-05T20:28:36.370Z,18.90
2023-04-05T20:31:03.700Z,20.05
2023-04-05T20:33:51.350Z,21.20
2023-04-05T20:36:38.852Z,23.55
2023-04-05T20:39:07.461Z,21.48
2023-04-05T20:41:35.104Z,22.23
2023-04-05T20:44:02.348Z,20.38
2023-04-05T20:46:29.811Z,19.73
2023-04-05T20:48:58.004Z,22.50
2023-04-05T20:51:25.682Z,19.35
2023-04-05T20:53:53.174Z,21.42
2023-04-05T20:56:20.460Z,21.80
2023-04-05T20:58:47.890Z,21.10
2023-04-05T21:01:15.622Z,21.33
2023-04-05T21:03:43.539Z,22.20
2023-04-05T21:06:11.313Z,21.13
2023-04-05T21:08:39.252Z,19.77
2023-04-05T21:11:07.107Z,21.08
2023-04-05T21:13:35.582Z,20.70
2023-04-05T21:16:02.830Z,20.58
2023-04-05T21:18:30.068Z,20.35
2023-04-05T21:20:57.303Z,18.55
2023-04-05T21:23:28.600Z,19.67
2023-04-05T21:28:23.139Z,18.77
2023-04-05T21:30:50.514Z,20.08
2023-04-05T21:33:17.719Z,18.60
2023-04-05T21:35:44.969Z,18.75
2023-04-05T21:38:14.224Z,20.45
2023-04-05T21:40:42.721Z,18.83
2023-04-05T21:43:09.894Z,17.35
2023-04-05T21:45:37.040Z,19.70
2023-04-05T21:48:04.280Z,17.95
2023-04-05T21:50:31.564Z,17.73
2023-04-05T21:52:58.673Z,19.02
2023-04-05T21:55:25.766Z,19.15
2023-04-05T21:57:52.990Z,19.00
2023-04-05T22:00:20.268Z,16.98
2023-04-05T22:02:47.582Z,15.60
2023-04-05T22:05:26.113Z,15.85
2023-04-05T22:07:57.196Z,17.20
2023-04-05T22:10:25.200Z,17.60
2023-04-05T22:12:52.332Z,16.33
2023-04-05T22:15:19.494Z,15.57
2023-04-05T22:17:46.744Z,15.52
2023-04-05T22:20:13.932Z,16.55
2023-04-05T22:22:41.254Z,15.27
2023-04-05T22:25:09.943Z,13.77
2023-04-05T22:27:37.206Z,12.77
2023-04-05T22:30:05.418Z,15.48
2023-04-05T22:32:32.695Z,14.00
2023-04-05T22:34:59.930Z,14.75
2023-04-05T22:37:27.083Z,14.30
2023-04-05T22:39:54.239Z,14.38
2023-04-05T22:42:21.571Z,13.77
2023-04-05T22:44:50.079Z,13.55
2023-04-05T22:47:17.222Z,12.35
2023-04-05T22:49:44.336Z,13.55
2023-04-05T22:52:11.447Z,13.63
2023-04-05T22:54:38.607Z,12.70
2023-04-05T22:57:05.881Z,11.52
2023-04-05T22:59:38.782Z,12.45
2023-04-05T23:02:06.419Z,12.45
2023-04-05T23:04:33.595Z,12.73
2023-04-05T23:07:00.854Z,11.82
2023-04-05T23:09:28.254Z,12.05
2023-04-05T23:11:55.475Z,13.23
2023-04-05T23:14:22.549Z,12.60
2023-04-05T23:16:49.905Z,13.10
2023-04-05T23:19:17.037Z,12.50
2023-04-05T23:21:44.195Z,10.90
2023-04-05T23:24:11.430Z,11.93
2023-04-05T23:26:38.720Z,11.15
2023-04-05T23:29:06.167Z,12.77
2023-04-05T23:31:33.511Z,11.15
2023-04-05T23:34:00.670Z,11.63
2023-04-05T23:36:28.759Z,12.82
2023-04-05T23:38:58.256Z,11.50
2023-04-05T23:41:25.650Z,11.43
2023-04-05T23:43:52.777Z,12.40
2023-04-05T23:46:20.152Z,11.25
2023-04-05T23:48:47.506Z,11.48
2023-04-05T23:51:14.623Z,10.63
2023-04-05T23:53:41.856Z,11.50
2023-04-05T23:56:09.014Z,12.02
2023-04-05T23:58:36.193Z,11.77
